ETOU/WIE METAR and TAF weather

Enter ICAO airport designator
Station Type Date Time Source
ETOU METAR 2020/10/20 16:47 UTC NOAA

ETOU 201647Z AUTO 00000KT 9999 -RA FEW090 10/09 A2993 RMK AO2 RAB47 SLP142 $


Station Type Date Time Source
ETOU Decoded METAR 2020/10/20 16:47 UTC NOAA

Wiesbaden, Germany (ETOU) 50-03N 008-20E
Oct 20, 2020 - 12:47 PM EDT / 2020.10.20 1647 UTC
Wind: Calm:0
Visibility: greater than 7 mile(s):0
Sky conditions: mostly clear
Weather: light rain
Temperature: 50 F (10 C)
Dew Point: 48 F (9 C)
Relative Humidity: 93%
Pressure (altimeter): 29.93 in. Hg (1013 hPa)
ob: ETOU 201647Z AUTO 00000KT 9999 -RA FEW090 10/09 A2993 RMK AO2 RAB47 SLP142
cycle: 17

Station Type Date Time Source
ETOU TAF 2020/10/20 14:42 UTC NOAA

TAF TAF
AMD ETOU 201435Z 2014/2118 16008KT 9999 SCT050 BKN100 QNH2993INS
TEMPO 2014/2018 9000 -RA BKN050
BECMG 2018/2019 19009KT 9999 BKN050 620909 QNH2990INS
BECMG 2021/2022 20010G15KT 9000 -RA BKN050 620909 QNH2988INS
BECMG 2104/2105 16012G18KT 9999 NSW BKN060 OVC090 610909 510008 QNH2986INS
BECMG 2108/2109 21015G25KT 9999 BKN090 640906 520008 QNH2984INS TX17/2014Z TN11/2104Z

Example: see airport list